Аэропорт: Ширак. Гюмри

ICAO: UDSG

METAR:
2019-07-24 01:00:00
UDSG 240100Z 23003KT 170V270 9000 NSC 17/14 Q1012 R02/CLRD70 NOSIG
METAR:
2019-07-23 23:01:00
TAF UDSG 232301Z 2400/2424 05012KT 9999 FEW050 TEMPO 2400/2409 VRB24KT SCT040CB